Time;durP1;ratioP1;P1;durP2;ratioP2;P2;SDS_P1;SDS_P2;PMS_P1;PMS_P2;Temp;Humidity;BMP_temperature;BMP_pressure;BME280_temperature;BME280_humidity;BME280_pressure;Samples;Min_cycle;Max_cycle;Signal;HPM_P1;HPM_P2
2022/08/09 00:00:24;;;;;;;3.43;2.80;;;18.80;99.90;;;;;;5089315;28;20425;-45
2022/08/09 00:02:51;;;;;;;4.63;3.70;;;18.80;99.90;;;;;;5089102;28;20180;-45
2022/08/09 00:05:18;;;;;;;3.13;2.83;;;18.80;99.90;;;;;;5089345;28;20286;-46
2022/08/09 00:07:44;;;;;;;3.00;2.70;;;18.80;99.90;;;;;;5088946;28;20906;-44
2022/08/09 00:10:10;;;;;;;4.00;3.60;;;18.80;99.90;;;;;;5089472;28;20438;-43
2022/08/09 00:12:36;;;;;;;4.50;3.10;;;18.70;99.90;;;;;;5089504;28;20196;-46
2022/08/09 00:15:02;;;;;;;5.17;3.23;;;18.60;99.90;;;;;;5089237;28;20208;-45
2022/08/09 00:17:28;;;;;;;3.27;2.97;;;18.60;99.90;;;;;;5088864;28;20425;-43
2022/08/09 00:19:54;;;;;;;6.60;3.33;;;18.60;99.90;;;;;;5088320;28;20430;-45
2022/08/09 00:22:19;;;;;;;4.13;3.10;;;18.50;99.90;;;;;;5093292;28;20184;-42
2022/08/09 00:24:46;;;;;;;3.00;2.70;;;18.60;99.90;;;;;;5093373;28;20200;-43
2022/08/09 00:27:11;;;;;;;4.40;3.03;;;18.60;99.90;;;;;;5092638;28;20241;-44
2022/08/09 00:29:37;;;;;;;3.40;3.10;;;18.60;99.90;;;;;;5093055;28;20426;-45
2022/08/09 00:32:03;;;;;;;3.80;3.40;;;18.50;99.90;;;;;;5093205;28;20215;-43
2022/08/09 00:34:29;;;;;;;6.30;3.37;;;18.40;99.90;;;;;;5093039;28;20242;-44
2022/08/09 00:36:54;;;;;;;3.00;2.80;;;18.40;99.90;;;;;;5091209;28;20430;-45
2022/08/09 00:39:21;;;;;;;3.60;3.30;;;18.40;99.90;;;;;;5093152;28;20186;-45
2022/08/09 00:41:48;;;;;;;6.53;3.03;;;18.30;99.90;;;;;;5093079;28;20493;-47
2022/08/09 00:44:14;;;;;;;9.07;3.27;;;18.30;99.90;;;;;;5092789;28;20422;-46
2022/08/09 00:46:42;;;;;;;3.60;3.30;;;18.30;99.90;;;;;;5092543;28;20761;-45
2022/08/09 00:49:08;;;;;;;3.33;2.57;;;18.20;99.90;;;;;;5092626;28;20479;-44
2022/08/09 00:51:35;;;;;;;4.37;3.30;;;18.20;99.90;;;;;;5092754;28;20426;-44
2022/08/09 00:54:00;;;;;;;5.33;3.70;;;18.20;99.90;;;;;;5092595;28;20967;-43
2022/08/09 00:56:29;;;;;;;4.00;3.60;;;18.20;99.90;;;;;;5092529;28;20471;-45
2022/08/09 00:58:55;;;;;;;3.47;3.17;;;18.10;99.90;;;;;;5092171;28;20427;-44
2022/08/09 01:01:28;;;;;;;3.47;3.00;;;18.10;99.90;;;;;;5092847;28;20479;-44
2022/08/09 01:04:07;;;;;;;4.87;3.20;;;18.00;99.90;;;;;;5092808;28;20788;-45
2022/08/09 01:06:37;;;;;;;3.40;3.10;;;18.10;99.90;;;;;;5092020;28;20457;-43
2022/08/09 01:09:08;;;;;;;6.33;3.50;;;18.10;99.90;;;;;;5092297;28;20506;-43
2022/08/09 01:11:48;;;;;;;4.13;3.30;;;18.10;99.90;;;;;;5092385;28;20422;-43
2022/08/09 01:14:27;;;;;;;6.53;3.50;;;18.00;99.90;;;;;;5092417;28;20455;-45
2022/08/09 01:17:01;;;;;;;3.80;3.13;;;18.00;99.90;;;;;;5091601;28;20434;-44
2022/08/09 01:19:57;;;;;;;3.40;2.60;;;18.00;99.90;;;;;;5091214;28;20885;-44
2022/08/09 01:22:42;;;;;;;4.33;3.30;;;17.90;99.90;;;;;;5092150;28;20577;-44
2022/08/09 01:25:27;;;;;;;3.20;2.90;;;17.90;99.90;;;;;;5080579;28;20426;-43
2022/08/09 01:27:55;;;;;;;3.93;3.57;;;17.90;99.90;;;;;;5091245;28;20454;-43
2022/08/09 01:30:24;;;;;;;3.80;3.50;;;17.90;99.90;;;;;;5092319;28;20429;-45
2022/08/09 01:32:51;;;;;;;4.00;3.43;;;17.90;99.90;;;;;;5090820;28;20563;-45
2022/08/09 01:35:43;;;;;;;3.93;3.40;;;17.90;99.90;;;;;;5090572;28;21007;-43
2022/08/09 01:38:14;;;;;;;4.07;3.33;;;17.80;99.90;;;;;;5090648;28;20561;-45
2022/08/09 01:41:10;;;;;;;5.60;4.23;;;17.80;99.90;;;;;;5091954;28;20452;-46
2022/08/09 01:43:39;;;;;;;4.07;3.10;;;17.80;99.90;;;;;;5091908;28;20450;-44
2022/08/09 01:46:05;;;;;;;3.50;3.20;;;17.80;99.90;;;;;;5091754;28;20415;-43
2022/08/09 01:48:33;;;;;;;4.70;3.60;;;17.70;99.90;;;;;;5090803;28;20425;-46
2022/08/09 01:51:01;;;;;;;4.13;3.13;;;17.60;99.90;;;;;;5091728;28;20422;-43
2022/08/09 01:53:29;;;;;;;5.93;2.90;;;17.60;99.90;;;;;;5091596;28;20491;-44
2022/08/09 01:55:56;;;;;;;4.63;3.33;;;17.50;99.90;;;;;;5091801;28;20430;-43
2022/08/09 01:58:22;;;;;;;4.80;3.17;;;17.50;99.90;;;;;;5091067;28;20419;-37
2022/08/09 02:00:49;;;;;;;4.30;3.10;;;17.40;99.90;;;;;;5091473;28;20410;-37
2022/08/09 02:03:17;;;;;;;4.30;3.63;;;17.40;99.90;;;;;;5091199;28;20758;-37
2022/08/09 02:05:44;;;;;;;5.40;3.77;;;17.40;99.90;;;;;;5091404;28;20430;-38
2022/08/09 02:08:14;;;;;;;3.23;2.93;;;17.30;99.90;;;;;;5091009;28;20481;-36
2022/08/09 02:10:44;;;;;;;3.80;3.50;;;17.30;99.90;;;;;;5091470;28;20403;-37
2022/08/09 02:13:11;;;;;;;3.97;3.67;;;17.30;99.90;;;;;;5091260;28;20421;-37
2022/08/09 02:15:44;;;;;;;5.57;3.93;;;17.40;99.90;;;;;;5091005;28;20450;-36
2022/08/09 02:18:12;;;;;;;4.03;3.30;;;17.30;99.90;;;;;;5090578;28;20531;-36
2022/08/09 02:20:42;;;;;;;5.00;3.77;;;17.30;99.90;;;;;;5090307;28;20426;-36
2022/08/09 02:23:19;;;;;;;3.83;3.53;;;17.30;99.90;;;;;;5091018;28;20413;-37
2022/08/09 02:25:49;;;;;;;6.33;3.30;;;17.30;99.90;;;;;;5090988;28;20418;-37
2022/08/09 02:28:19;;;;;;;4.30;3.23;;;17.20;99.90;;;;;;5090202;28;20453;-36
2022/08/09 02:30:50;;;;;;;3.50;3.10;;;17.10;99.90;;;;;;5091004;28;20418;-37
2022/08/09 02:33:23;;;;;;;6.03;3.90;;;17.20;99.90;;;;;;5091034;28;20517;-37
2022/08/09 02:35:54;;;;;;;4.80;4.10;;;17.20;99.90;;;;;;5090771;28;20600;-37
2022/08/09 02:38:27;;;;;;;4.00;3.13;;;17.20;99.90;;;;;;5090139;28;20770;-37
2022/08/09 02:40:58;;;;;;;4.97;4.17;;;17.10;99.90;;;;;;5090540;28;20407;-37
2022/08/09 02:43:27;;;;;;;6.80;3.40;;;17.20;99.90;;;;;;5090287;28;20425;-37
2022/08/09 02:45:54;;;;;;;4.80;3.60;;;17.10;99.90;;;;;;5090540;28;20421;-37
2022/08/09 02:48:21;;;;;;;4.80;3.60;;;17.00;99.90;;;;;;5089841;28;20429;-36
2022/08/09 02:50:49;;;;;;;3.50;3.17;;;17.00;99.90;;;;;;5090512;28;20422;-36
2022/08/09 02:53:28;;;;;;;5.30;3.90;;;17.00;99.90;;;;;;5090218;28;20403;-37
2022/08/09 02:55:57;;;;;;;4.40;3.77;;;17.00;99.90;;;;;;5077911;28;20418;-37
2022/08/09 02:58:27;;;;;;;5.57;3.00;;;16.90;99.90;;;;;;5089717;28;20472;-36
2022/08/09 03:00:54;;;;;;;5.57;3.77;;;16.90;99.90;;;;;;5089146;28;20415;-37
2022/08/09 03:03:21;;;;;;;4.60;3.60;;;16.90;99.90;;;;;;5090291;28;20498;-37
2022/08/09 03:05:49;;;;;;;4.77;4.00;;;16.90;99.90;;;;;;5090008;28;20434;-37
2022/08/09 03:08:16;;;;;;;5.83;4.20;;;16.80;99.90;;;;;;5089759;28;20447;-37
2022/08/09 03:10:44;;;;;;;6.33;4.10;;;16.80;99.90;;;;;;5090347;28;20414;-37
2022/08/09 03:13:13;;;;;;;3.63;3.17;;;16.70;99.90;;;;;;5089990;28;20415;-36
2022/08/09 03:15:40;;;;;;;3.83;3.53;;;16.70;99.90;;;;;;5090213;28;20989;-37
2022/08/09 03:18:07;;;;;;;5.20;4.33;;;16.70;99.90;;;;;;5089258;28;20414;-37
2022/08/09 03:20:33;;;;;;;5.00;3.63;;;16.70;99.90;;;;;;5088557;28;20422;-37
2022/08/09 03:22:59;;;;;;;4.00;3.60;;;16.70;99.90;;;;;;5089817;28;20411;-36
2022/08/09 03:25:27;;;;;;;6.53;3.93;;;16.70;99.90;;;;;;5090012;28;20191;-37
2022/08/09 03:27:54;;;;;;;3.40;3.10;;;16.70;99.90;;;;;;5089325;28;20454;-36
2022/08/09 03:30:20;;;;;;;5.13;4.10;;;16.70;99.90;;;;;;5089873;28;20913;-37
2022/08/09 03:32:46;;;;;;;6.47;4.20;;;16.70;99.90;;;;;;5089846;28;21311;-37
2022/08/09 03:35:12;;;;;;;4.20;3.80;;;16.70;99.90;;;;;;5089978;28;20461;-37
2022/08/09 03:37:41;;;;;;;4.13;3.83;;;16.70;99.90;;;;;;5089214;28;20433;-37
2022/08/09 03:40:07;;;;;;;4.63;4.13;;;16.60;99.90;;;;;;5089995;28;20506;-36
2022/08/09 03:42:33;;;;;;;4.50;3.83;;;16.70;99.90;;;;;;5088603;28;20800;-37
2022/08/09 03:44:59;;;;;;;5.27;4.30;;;16.70;99.90;;;;;;5089959;28;20422;-36
2022/08/09 03:47:25;;;;;;;4.30;3.70;;;16.70;99.90;;;;;;5088767;28;20421;-37
2022/08/09 03:49:51;;;;;;;8.20;4.27;;;16.60;99.90;;;;;;5089867;28;20184;-37
2022/08/09 03:52:18;;;;;;;4.53;4.00;;;16.60;99.90;;;;;;5089545;28;20272;-37
2022/08/09 03:54:46;;;;;;;5.03;4.27;;;16.50;99.90;;;;;;5088612;28;20816;-37
2022/08/09 03:57:13;;;;;;;4.43;4.03;;;16.50;99.90;;;;;;5092973;28;20414;-37
2022/08/09 03:59:42;;;;;;;5.20;4.50;;;16.50;99.90;;;;;;5094003;28;20415;-36
2022/08/09 04:02:09;;;;;;;4.50;4.10;;;16.40;99.90;;;;;;5093382;28;20522;-37
2022/08/09 04:04:35;;;;;;;10.97;4.30;;;16.40;99.90;;;;;;5093840;28;20944;-37
2022/08/09 04:07:01;;;;;;;4.40;3.83;;;16.40;99.90;;;;;;5092956;28;20431;-37
2022/08/09 04:09:28;;;;;;;6.07;4.87;;;16.40;99.90;;;;;;5093930;28;20450;-37
2022/08/09 04:12:05;;;;;;;9.50;4.50;;;16.50;99.90;;;;;;5093464;28;20454;-37
2022/08/09 04:14:31;;;;;;;7.20;5.60;;;16.40;99.90;;;;;;5092079;28;20548;-37
2022/08/09 04:16:56;;;;;;;4.97;4.33;;;16.40;99.90;;;;;;5092868;28;20596;-37
2022/08/09 04:19:22;;;;;;;4.90;4.47;;;16.30;99.90;;;;;;5091957;28;20208;-37
2022/08/09 04:21:48;;;;;;;6.10;4.50;;;16.30;99.90;;;;;;5093464;28;20206;-37
2022/08/09 04:24:14;;;;;;;4.60;4.17;;;16.20;99.90;;;;;;5093274;28;20188;-37
2022/08/09 04:26:39;;;;;;;8.17;4.03;;;16.20;99.90;;;;;;5092848;28;20568;-37
2022/08/09 04:29:06;;;;;;;6.30;4.33;;;16.30;99.90;;;;;;5092943;28;20929;-37
2022/08/09 04:31:31;;;;;;;7.83;4.57;;;16.20;99.90;;;;;;5092038;28;20257;-37
2022/08/09 04:33:57;;;;;;;6.40;4.47;;;16.20;99.90;;;;;;5093162;28;20492;-37
2022/08/09 04:36:28;;;;;;;5.47;4.97;;;16.20;99.90;;;;;;5093345;28;20271;-36
2022/08/09 04:38:56;;;;;;;6.30;4.63;;;16.20;99.90;;;;;;5092302;28;20694;-37
2022/08/09 04:41:23;;;;;;;9.83;4.60;;;16.20;99.90;;;;;;5093123;28;20433;-37
2022/08/09 04:43:49;;;;;;;6.47;4.70;;;16.10;99.90;;;;;;5092729;28;21234;-37
2022/08/09 04:46:14;;;;;;;4.80;4.37;;;16.10;99.90;;;;;;5092962;28;20422;-37
2022/08/09 04:48:40;;;;;;;6.17;4.53;;;16.10;99.90;;;;;;5092332;28;20208;-37
2022/08/09 04:51:05;;;;;;;7.27;5.00;;;16.10;99.90;;;;;;5089321;28;20184;-37
2022/08/09 04:53:31;;;;;;;6.73;4.53;;;16.20;99.90;;;;;;5086385;28;20656;-37
2022/08/09 04:55:58;;;;;;;10.33;5.33;;;16.30;99.90;;;;;;5089632;28;20275;-37
2022/08/09 04:58:24;;;;;;;8.20;5.30;;;16.30;99.90;;;;;;5092147;28;20587;-37
2022/08/09 05:00:50;;;;;;;8.63;4.70;;;16.40;99.90;;;;;;5091991;28;20501;-37
2022/08/09 05:03:15;;;;;;;6.10;5.17;;;16.40;99.90;;;;;;5091972;28;20509;-37
2022/08/09 05:05:41;;;;;;;6.57;4.60;;;16.40;99.90;;;;;;5092596;28;20230;-36
2022/08/09 05:08:07;;;;;;;7.20;5.40;;;16.40;99.90;;;;;;5091792;28;20794;-37
2022/08/09 05:10:32;;;;;;;7.00;5.40;;;16.40;99.90;;;;;;5092457;28;20275;-36
2022/08/09 05:12:58;;;;;;;7.33;5.50;;;16.50;99.90;;;;;;5092258;28;20207;-37
2022/08/09 05:15:25;;;;;;;6.23;5.57;;;16.40;99.90;;;;;;5092407;28;20216;-37
2022/08/09 05:17:51;;;;;;;7.00;5.90;;;16.50;99.90;;;;;;5091033;28;20180;-37
2022/08/09 05:20:16;;;;;;;6.80;5.00;;;16.50;99.90;;;;;;5090924;28;21093;-37
2022/08/09 05:22:42;;;;;;;7.00;5.57;;;16.60;99.90;;;;;;5092013;28;20427;-37
2022/08/09 05:25:08;;;;;;;10.60;5.33;;;16.70;99.90;;;;;;5092284;28;20184;-37
2022/08/09 05:27:34;;;;;;;7.73;5.70;;;16.80;99.90;;;;;;5091286;28;20425;-37
2022/08/09 05:30:00;;;;;;;5.93;5.30;;;16.70;99.90;;;;;;5092172;28;20525;-37
2022/08/09 05:32:26;;;;;;;6.30;5.70;;;16.80;99.90;;;;;;5092049;28;20196;-37
2022/08/09 05:34:51;;;;;;;6.33;4.93;;;16.80;99.90;;;;;;5092286;28;20313;-37
2022/08/09 05:37:17;;;;;;;6.50;5.43;;;16.80;99.90;;;;;;5090955;28;20450;-37
2022/08/09 05:39:43;;;;;;;10.90;5.60;;;16.80;99.90;;;;;;5091739;28;20188;-37
2022/08/09 05:42:10;;;;;;;6.03;5.00;;;16.80;99.90;;;;;;5091723;28;20663;-37
2022/08/09 05:44:35;;;;;;;6.43;5.07;;;16.90;99.90;;;;;;5091923;28;20189;-36
2022/08/09 05:47:01;;;;;;;7.57;5.50;;;16.90;99.90;;;;;;5091278;28;20434;-37
2022/08/09 05:49:27;;;;;;;6.40;5.80;;;16.90;99.90;;;;;;5091641;28;20196;-37
2022/08/09 05:51:53;;;;;;;8.17;6.13;;;17.00;99.90;;;;;;5091754;28;20803;-37
2022/08/09 05:54:18;;;;;;;9.30;6.80;;;17.10;99.90;;;;;;5092025;28;20196;-37
2022/08/09 05:56:44;;;;;;;7.17;6.03;;;17.20;99.90;;;;;;5090895;28;20188;-37
2022/08/09 05:59:10;;;;;;;12.50;6.27;;;17.30;99.90;;;;;;5091772;28;20184;-37
2022/08/09 06:01:35;;;;;;;9.33;6.10;;;17.40;99.90;;;;;;5091530;28;20234;-37
2022/08/09 06:04:01;;;;;;;7.23;6.43;;;17.50;99.90;;;;;;5089740;28;20361;-37
2022/08/09 06:06:28;;;;;;;9.73;5.97;;;17.70;99.90;;;;;;5089299;28;20204;-36
2022/08/09 06:08:54;;;;;;;7.30;5.53;;;17.90;99.90;;;;;;5083341;28;20784;-36
2022/08/09 06:11:19;;;;;;;8.37;6.43;;;18.00;99.90;;;;;;5090868;28;20421;-37
2022/08/09 06:13:45;;;;;;;9.40;5.80;;;18.20;99.90;;;;;;5090217;28;20261;-37
2022/08/09 06:16:11;;;;;;;12.30;6.27;;;18.30;99.90;;;;;;5090763;28;20188;-37
2022/08/09 06:18:37;;;;;;;8.73;6.70;;;18.40;99.90;;;;;;5083069;28;20196;-37
2022/08/09 06:21:05;;;;;;;6.47;5.80;;;18.50;99.90;;;;;;5086779;28;20471;-37
2022/08/09 06:23:32;;;;;;;11.70;5.87;;;18.70;99.90;;;;;;5087125;28;20180;-37
2022/08/09 06:25:57;;;;;;;7.57;6.43;;;18.80;99.90;;;;;;5090258;28;20917;-37
2022/08/09 06:28:23;;;;;;;8.50;6.93;;;19.00;99.90;;;;;;5088778;28;20430;-37
2022/08/09 06:30:49;;;;;;;8.20;5.63;;;19.10;99.90;;;;;;5090780;28;20185;-37
2022/08/09 06:33:15;;;;;;;9.13;6.30;;;19.20;99.90;;;;;;5083400;28;20176;-37
2022/08/09 06:35:41;;;;;;;8.80;6.87;;;19.30;99.90;;;;;;5089969;28;20472;-37
2022/08/09 06:38:07;;;;;;;6.80;6.00;;;19.50;99.90;;;;;;5090097;28;20184;-37
2022/08/09 06:40:32;;;;;;;8.20;6.77;;;19.50;99.90;;;;;;5090930;28;20189;-37
2022/08/09 06:42:59;;;;;;;9.77;6.30;;;19.50;99.90;;;;;;5089394;28;20198;-37
2022/08/09 06:45:26;;;;;;;6.73;6.00;;;19.60;99.90;;;;;;5089413;28;20195;-36
2022/08/09 06:47:52;;;;;;;9.10;6.87;;;19.60;99.90;;;;;;5089986;28;20464;-36
2022/08/09 06:50:18;;;;;;;9.60;6.80;;;19.80;99.90;;;;;;5090707;28;20419;-36
2022/08/09 06:52:47;;;;;;;10.43;6.90;;;19.80;99.90;;;;;;5090262;28;20446;-37
2022/08/09 06:55:18;;;;;;;9.07;7.23;;;19.90;99.90;;;;;;5090421;28;20214;-37
2022/08/09 06:57:44;;;;;;;7.90;6.57;;;20.00;99.90;;;;;;5089700;28;20785;-37
2022/08/09 07:00:11;;;;;;;7.47;5.93;;;20.10;99.90;;;;;;5090626;28;20414;-37
2022/08/09 07:02:37;;;;;;;9.67;6.80;;;20.20;99.90;;;;;;5090453;28;20199;-37
2022/08/09 07:05:04;;;;;;;7.13;6.03;;;20.20;99.90;;;;;;5090236;28;20441;-37
2022/08/09 07:07:30;;;;;;;6.03;5.43;;;20.20;99.90;;;;;;5089113;28;20419;-37
2022/08/09 07:09:55;;;;;;;6.60;6.00;;;20.20;99.90;;;;;;5089762;28;20521;-37
2022/08/09 07:12:21;;;;;;;8.50;5.50;;;20.20;99.90;;;;;;5089911;28;21054;-37
2022/08/09 07:14:47;;;;;;;6.60;5.70;;;20.30;99.90;;;;;;5089659;28;20196;-37
2022/08/09 07:17:13;;;;;;;7.10;5.60;;;20.40;99.90;;;;;;5089587;28;20551;-37
2022/08/09 07:19:39;;;;;;;7.90;5.50;;;20.50;99.90;;;;;;5088606;28;20426;-37
2022/08/09 07:22:06;;;;;;;6.80;5.40;;;20.60;99.90;;;;;;5089788;28;20168;-38
2022/08/09 07:24:32;;;;;;;5.30;4.80;;;20.60;99.90;;;;;;5090060;28;20472;-37
2022/08/09 07:26:59;;;;;;;8.90;5.40;;;20.60;99.90;;;;;;5089478;28;20422;-36
2022/08/09 07:29:27;;;;;;;6.53;4.70;;;20.60;99.90;;;;;;5090021;28;20437;-38
2022/08/09 07:31:53;;;;;;;7.70;4.97;;;20.60;99.90;;;;;;5090002;28;20411;-37
2022/08/09 07:34:19;;;;;;;8.20;5.60;;;20.60;99.90;;;;;;5089583;28;20447;-37
2022/08/09 07:36:45;;;;;;;10.80;5.93;;;20.60;99.90;;;;;;5089284;28;20891;-37
2022/08/09 07:39:11;;;;;;;5.83;5.23;;;20.70;99.90;;;;;;5090112;28;20419;-37
2022/08/09 07:41:37;;;;;;;6.13;4.97;;;20.70;99.90;;;;;;5089428;28;20864;-37
2022/08/09 07:44:02;;;;;;;10.60;5.30;;;20.80;99.90;;;;;;5089025;28;20464;-37
2022/08/09 07:46:28;;;;;;;7.17;4.83;;;20.80;99.90;;;;;;5089480;28;20242;-37
2022/08/09 07:48:55;;;;;;;14.43;6.07;;;20.90;99.90;;;;;;5088499;28;20415;-37
2022/08/09 07:51:21;;;;;;;5.73;5.07;;;20.90;99.90;;;;;;5089443;28;20199;-37
2022/08/09 07:53:49;;;;;;;7.00;4.93;;;20.90;99.90;;;;;;5089612;28;21024;-37
2022/08/09 07:56:15;;;;;;;12.53;5.13;;;21.00;99.90;;;;;;5089629;28;20426;-37
2022/08/09 07:58:41;;;;;;;7.13;4.23;;;21.00;99.90;;;;;;5089077;28;20475;-37
2022/08/09 08:01:06;;;;;;;6.07;4.80;;;21.00;99.90;;;;;;5089668;28;20180;-37
2022/08/09 08:03:32;;;;;;;6.63;4.93;;;21.10;99.90;;;;;;5089473;28;20227;-37
2022/08/09 08:05:58;;;;;;;5.67;5.03;;;21.10;99.90;;;;;;5089551;28;20200;-37
2022/08/09 08:08:24;;;;;;;5.20;4.70;;;21.00;99.90;;;;;;5088916;28;20422;-37
2022/08/09 08:10:50;;;;;;;4.90;4.50;;;20.90;99.90;;;;;;5089728;28;20196;-37
2022/08/09 08:13:15;;;;;;;5.90;4.77;;;20.90;99.90;;;;;;5089387;28;20754;-37
2022/08/09 08:15:41;;;;;;;5.73;4.50;;;20.90;99.90;;;;;;5083356;28;20249;-37
2022/08/09 08:18:07;;;;;;;9.90;4.70;;;20.90;99.90;;;;;;5086528;28;20184;-37
2022/08/09 08:20:33;;;;;;;6.23;4.37;;;21.00;99.90;;;;;;5087033;28;20858;-37
2022/08/09 08:23:01;;;;;;;4.93;4.53;;;20.90;99.90;;;;;;5089155;28;20916;-37
2022/08/09 08:25:27;;;;;;;5.93;4.60;;;21.00;99.90;;;;;;5088028;28;20216;-37
2022/08/09 08:27:52;;;;;;;4.87;4.47;;;21.00;99.90;;;;;;5088525;28;20501;-37
2022/08/09 08:30:18;;;;;;;7.40;4.33;;;21.10;99.90;;;;;;5089214;28;20188;-37
2022/08/09 08:32:44;;;;;;;4.70;4.20;;;21.00;99.90;;;;;;5088104;28;20184;-37
2022/08/09 08:35:10;;;;;;;5.40;4.17;;;21.10;99.90;;;;;;5089356;28;20212;-37
2022/08/09 08:37:36;;;;;;;5.40;4.40;;;21.20;99.90;;;;;;5088608;28;20330;-38
2022/08/09 08:40:05;;;;;;;5.33;4.77;;;21.20;99.90;;;;;;5089222;28;21103;-37
2022/08/09 08:42:32;;;;;;;5.53;4.40;;;21.30;99.90;;;;;;5091736;28;20192;-37
2022/08/09 08:44:59;;;;;;;8.00;5.10;;;21.30;99.90;;;;;;5091782;28;20438;-37
2022/08/09 08:47:26;;;;;;;8.13;4.73;;;21.30;99.90;;;;;;5092158;28;20418;-37
2022/08/09 08:49:54;;;;;;;9.00;5.20;;;21.30;99.90;;;;;;5093122;28;20453;-37
2022/08/09 08:52:24;;;;;;;5.30;4.40;;;21.30;99.90;;;;;;5092863;28;20411;-37
2022/08/09 08:54:54;;;;;;;6.27;4.20;;;21.30;99.90;;;;;;5092827;28;20450;-37
2022/08/09 08:57:21;;;;;;;4.83;4.43;;;21.50;99.90;;;;;;5092117;28;20419;-38
2022/08/09 08:59:48;;;;;;;6.90;5.43;;;21.50;99.90;;;;;;5092738;28;20418;-37
2022/08/09 09:02:25;;;;;;;7.43;4.50;;;21.50;99.90;;;;;;5092602;28;20591;-37
2022/08/09 09:04:55;;;;;;;6.60;4.93;;;21.60;99.90;;;;;;5092535;28;20448;-37
2022/08/09 09:07:22;;;;;;;6.40;4.77;;;21.70;99.90;;;;;;5091964;28;20416;-37
2022/08/09 09:09:49;;;;;;;5.13;4.00;;;21.80;99.90;;;;;;5092514;28;20426;-37
2022/08/09 09:12:17;;;;;;;5.93;4.60;;;21.80;99.90;;;;;;5092464;28;20421;-37
2022/08/09 09:14:45;;;;;;;7.10;4.23;;;21.90;99.90;;;;;;5088553;28;20458;-37
2022/08/09 09:17:11;;;;;;;5.07;4.53;;;22.00;99.90;;;;;;5091899;28;20912;-37
2022/08/09 09:19:37;;;;;;;6.73;3.60;;;22.10;99.90;;;;;;5091060;28;20425;-37
2022/08/09 09:22:14;;;;;;;3.70;3.40;;;22.20;99.90;;;;;;5092224;28;20495;-37
2022/08/09 09:24:46;;;;;;;5.90;4.40;;;22.30;99.90;;;;;;5090263;28;20430;-37
2022/08/09 09:27:16;;;;;;;4.23;3.80;;;22.40;99.90;;;;;;5091507;28;20419;-37
2022/08/09 09:29:43;;;;;;;4.93;4.53;;;22.50;99.90;;;;;;5092206;28;20971;-37
2022/08/09 09:32:10;;;;;;;6.63;4.10;;;22.60;99.90;;;;;;5091956;28;20423;-37
2022/08/09 09:34:37;;;;;;;4.13;3.67;;;22.70;99.90;;;;;;5091859;28;20472;-37
2022/08/09 09:37:04;;;;;;;8.60;4.60;;;22.80;99.90;;;;;;5091121;28;20427;-37
2022/08/09 09:39:31;;;;;;;4.90;4.30;;;23.00;99.90;;;;;;5091531;28;20410;-37
2022/08/09 09:41:58;;;;;;;4.47;4.07;;;23.10;99.90;;;;;;5090311;28;20414;-37
2022/08/09 09:44:31;;;;;;;5.50;3.93;;;23.30;99.90;;;;;;5092053;28;20423;-37
2022/08/09 09:47:09;;;;;;;5.37;4.73;;;23.50;99.90;;;;;;5090992;28;20422;-37
2022/08/09 09:49:36;;;;;;;4.07;3.67;;;23.70;99.90;;;;;;5090655;28;20448;-37
2022/08/09 09:52:05;;;;;;;4.10;3.77;;;23.80;99.90;;;;;;5091042;28;20421;-37
2022/08/09 09:54:46;;;;;;;5.53;3.87;;;24.00;99.90;;;;;;5090374;28;20473;-39
2022/08/09 09:57:23;;;;;;;4.40;3.53;;;24.10;99.90;;;;;;5090631;28;20418;-37
2022/08/09 09:59:53;;;;;;;6.00;4.40;;;24.20;99.50;;;;;;5091443;28;20493;-38
2022/08/09 10:02:20;;;;;;;6.23;3.80;;;24.20;99.90;;;;;;5091288;28;20422;-37
2022/08/09 10:05:08;;;;;;;7.27;3.67;;;24.40;99.90;;;;;;5091269;28;20503;-37
2022/08/09 10:07:34;;;;;;;3.70;3.40;;;24.40;99.30;;;;;;5090689;28;20427;-37
2022/08/09 10:10:00;;;;;;;4.13;3.73;;;24.50;99.00;;;;;;5091060;28;20423;-37
2022/08/09 10:12:35;;;;;;;6.63;3.67;;;24.60;97.60;;;;;;5090939;28;20410;-37
2022/08/09 10:15:14;;;;;;;5.00;4.13;;;24.70;98.80;;;;;;5090590;28;20798;-38
2022/08/09 10:17:50;;;;;;;6.17;4.30;;;24.80;97.90;;;;;;5090361;28;20416;-37
2022/08/09 10:20:18;;;;;;;6.23;4.47;;;24.80;99.00;;;;;;5089821;28;20507;-38
2022/08/09 10:22:46;;;;;;;6.00;4.53;;;24.80;97.00;;;;;;5090911;28;20447;-37
2022/08/09 10:25:12;;;;;;;5.47;3.50;;;24.80;97.70;;;;;;5090863;28;21074;-37
2022/08/09 10:27:39;;;;;;;4.70;4.00;;;25.00;98.50;;;;;;5090168;28;20482;-37
2022/08/09 10:30:06;;;;;;;4.33;3.93;;;25.00;97.40;;;;;;5090992;28;20430;-37
2022/08/09 10:32:35;;;;;;;5.60;4.13;;;25.10;97.70;;;;;;5090695;28;20423;-37
2022/08/09 10:35:02;;;;;;;5.20;4.13;;;25.20;96.80;;;;;;5090666;28;20537;-37
2022/08/09 10:37:28;;;;;;;3.63;3.10;;;25.20;97.20;;;;;;5090043;28;20418;-37
2022/08/09 10:39:54;;;;;;;4.43;4.00;;;25.30;96.70;;;;;;5090378;28;20812;-37
2022/08/09 10:42:21;;;;;;;3.93;3.53;;;25.30;96.10;;;;;;5090555;28;20445;-37
2022/08/09 10:44:58;;;;;;;4.50;4.10;;;25.40;96.00;;;;;;5090673;28;20206;-37
2022/08/09 10:47:34;;;;;;;3.67;3.37;;;25.50;94.20;;;;;;5089896;28;20421;-37
2022/08/09 10:50:17;;;;;;;4.20;3.80;;;25.50;94.20;;;;;;5088995;28;20513;-37
2022/08/09 10:53:16;;;;;;;4.60;3.93;;;25.50;94.10;;;;;;5090384;28;20450;-37
2022/08/09 10:55:41;;;;;;;4.03;3.47;;;25.60;95.00;;;;;;5090275;28;20464;-37
2022/08/09 10:58:27;;;;;;;7.47;4.17;;;25.70;95.20;;;;;;5089723;28;20827;-37
2022/08/09 11:00:53;;;;;;;4.10;3.67;;;25.80;95.60;;;;;;5088928;28;20215;-37
2022/08/09 11:03:24;;;;;;;3.90;3.60;;;25.90;95.30;;;;;;5090136;28;21046;-37
2022/08/09 11:06:25;;;;;;;7.67;3.80;;;26.00;94.60;;;;;;5089986;28;20283;-37
2022/08/09 11:08:51;;;;;;;4.60;3.73;;;26.00;94.10;;;;;;5046279;28;20432;-37
2022/08/09 11:11:18;;;;;;;3.93;3.63;;;26.00;92.90;;;;;;5079309;28;20464;-37
2022/08/09 11:13:44;;;;;;;4.60;4.00;;;26.10;93.90;;;;;;5090031;28;20423;-37
2022/08/09 11:16:33;;;;;;;4.27;3.90;;;26.10;92.50;;;;;;5089845;28;20519;-37
2022/08/09 11:18:59;;;;;;;3.20;2.90;;;26.20;94.00;;;;;;5089108;28;20410;-38
2022/08/09 11:21:57;;;;;;;4.67;4.17;;;26.30;94.40;;;;;;5089543;28;20931;-37
2022/08/09 11:24:23;;;;;;;4.00;3.60;;;26.40;92.30;;;;;;5059675;28;20295;-37
2022/08/09 11:26:49;;;;;;;7.30;4.10;;;26.40;92.10;;;;;;5089365;28;20513;-37
2022/08/09 11:29:50;;;;;;;4.03;3.70;;;26.40;92.50;;;;;;5089679;28;20245;-37
2022/08/09 11:32:41;;;;;;;3.67;3.33;;;26.40;91.00;;;;;;5085588;28;20429;-37
2022/08/09 11:35:32;;;;;;;3.27;3.07;;;26.40;92.10;;;;;;5089586;28;20481;-37
2022/08/09 11:38:12;;;;;;;4.50;3.80;;;26.50;92.70;;;;;;5089091;28;20418;-37
2022/08/09 11:40:39;;;;;;;3.80;3.50;;;26.60;93.00;;;;;;5089618;28;20418;-37
2022/08/09 11:43:05;;;;;;;9.00;4.00;;;26.60;91.80;;;;;;5089629;28;20476;-37
2022/08/09 11:45:41;;;;;;;3.80;3.50;;;26.70;90.10;;;;;;5089635;28;20781;-37
2022/08/09 11:48:10;;;;;;;4.20;3.80;;;26.70;90.30;;;;;;5087676;28;20414;-37
2022/08/09 11:50:56;;;;;;;4.23;3.63;;;26.70;91.70;;;;;;5089426;28;20418;-37
2022/08/09 11:53:32;;;;;;;4.23;3.60;;;26.70;91.50;;;;;;5081820;28;20436;-38
2022/08/09 11:56:13;;;;;;;4.43;3.70;;;26.80;91.20;;;;;;5089492;28;20493;-37
2022/08/09 11:58:52;;;;;;;3.93;3.20;;;26.90;90.70;;;;;;5089020;28;20414;-37
2022/08/09 12:01:29;;;;;;;4.73;4.00;;;26.80;91.10;;;;;;5089212;28;20484;-37
2022/08/09 12:04:09;;;;;;;4.03;3.40;;;26.90;91.10;;;;;;5089477;28;20424;-37
2022/08/09 12:06:36;;;;;;;4.37;3.97;;;26.90;90.80;;;;;;5088907;28;20422;-37
2022/08/09 12:09:08;;;;;;;3.87;3.53;;;27.00;91.20;;;;;;5089147;28;20450;-38
2022/08/09 12:11:35;;;;;;;4.20;3.60;;;27.10;90.60;;;;;;5089167;28;20529;-37
2022/08/09 12:14:09;;;;;;;3.93;3.40;;;27.10;90.30;;;;;;5089318;28;20410;-37
2022/08/09 12:16:40;;;;;;;3.77;3.43;;;27.20;90.80;;;;;;5089963;28;20480;-37
2022/08/09 12:19:08;;;;;;;4.07;3.67;;;27.20;91.10;;;;;;5092589;28;20446;-37
2022/08/09 12:21:42;;;;;;;5.40;4.20;;;27.30;90.40;;;;;;5093415;28;20893;-37
2022/08/09 12:24:09;;;;;;;4.50;4.10;;;27.20;89.50;;;;;;5092865;28;20467;-37
2022/08/09 12:26:49;;;;;;;4.90;4.07;;;27.20;90.60;;;;;;5092783;28;20780;-37
2022/08/09 12:29:20;;;;;;;4.77;4.23;;;27.30;89.10;;;;;;5092935;28;20426;-37
2022/08/09 12:31:48;;;;;;;4.27;3.87;;;27.20;89.30;;;;;;5093200;28;20503;-37
2022/08/09 12:34:37;;;;;;;5.83;3.80;;;27.30;88.60;;;;;;5092936;28;20965;-37
2022/08/09 12:37:04;;;;;;;4.33;3.30;;;27.30;88.40;;;;;;5092444;28;20411;-37
2022/08/09 12:39:29;;;;;;;3.80;3.47;;;27.40;87.50;;;;;;5092809;28;20556;-37
2022/08/09 12:42:05;;;;;;;3.90;3.60;;;27.30;87.30;;;;;;5091722;28;20505;-37
2022/08/09 12:44:34;;;;;;;5.47;3.20;;;27.30;86.80;;;;;;5093089;28;20203;-37
2022/08/09 12:46:59;;;;;;;6.30;4.03;;;27.30;87.50;;;;;;5091859;28;20493;-38
2022/08/09 12:49:25;;;;;;;3.93;3.47;;;27.50;87.80;;;;;;5092791;28;20517;-38
2022/08/09 12:51:55;;;;;;;3.80;3.43;;;27.50;87.50;;;;;;5091303;28;20196;-37
2022/08/09 12:54:21;;;;;;;4.13;3.70;;;27.40;83.50;;;;;;5091550;28;20303;-37